createdAt,value
2022-12-05T00:02:15.112Z,99168.94
2022-12-05T00:05:02.355Z,99175.75
2022-12-05T00:07:49.685Z,99177.50
2022-12-05T00:10:37.892Z,99184.28
2022-12-05T00:13:24.995Z,99196.97
2022-12-05T00:16:14.283Z,99184.28
2022-12-05T00:19:04.010Z,99186.00
2022-12-05T00:21:51.260Z,99196.16
2022-12-05T00:24:38.371Z,99197.81
2022-12-05T00:27:25.523Z,99192.72
2022-12-05T00:30:13.354Z,99196.97
2022-12-05T00:33:00.545Z,99210.44
2022-12-05T00:35:49.114Z,99205.34
2022-12-05T00:38:36.802Z,99210.44
2022-12-05T00:41:28.472Z,99207.06
2022-12-05T00:44:15.777Z,99205.34
2022-12-05T00:47:03.130Z,99208.69
2022-12-05T00:49:50.143Z,99215.50
2022-12-05T00:52:38.512Z,99208.78
2022-12-05T00:55:25.835Z,99207.16
2022-12-05T00:58:12.823Z,99212.22
2022-12-05T01:01:07.068Z,99209.59
2022-12-05T01:03:56.888Z,99217.31
2022-12-05T01:06:44.812Z,99219.75
2022-12-05T01:09:33.519Z,99223.22
2022-12-05T01:12:20.574Z,99230.94
2022-12-05T01:15:09.817Z,99226.75
2022-12-05T01:17:57.123Z,99239.47
2022-12-05T01:20:44.744Z,99232.72
2022-12-05T01:23:32.128Z,99235.28
2022-12-05T01:26:23.463Z,99235.28
2022-12-05T01:29:11.510Z,99249.63
2022-12-05T01:31:58.887Z,99246.19
2022-12-05T01:34:45.926Z,99251.28
2022-12-05T01:37:33.430Z,99242.81
2022-12-05T01:40:20.687Z,99247.88
2022-12-05T01:43:16.735Z,99247.88
2022-12-05T01:46:03.912Z,99251.28
2022-12-05T01:48:52.575Z,99248.63
2022-12-05T01:51:42.095Z,99254.53
2022-12-05T01:54:30.478Z,99243.47
2022-12-05T01:57:17.789Z,99241.81
2022-12-05T02:00:13.375Z,99238.47
2022-12-05T02:03:05.781Z,99241.81
2022-12-05T02:05:55.591Z,99242.72
2022-12-05T02:08:44.368Z,99246.09
2022-12-05T02:11:33.986Z,99241.03
2022-12-05T02:14:33.995Z,99234.19
2022-12-05T02:17:39.115Z,99243.56
2022-12-05T02:20:48.519Z,99252.00
2022-12-05T02:24:07.171Z,99250.34
2022-12-05T02:27:09.132Z,99257.97
2022-12-05T02:30:06.177Z,99265.59
2022-12-05T02:33:05.639Z,99274.88
2022-12-05T02:36:04.793Z,99274.94
2022-12-05T02:39:01.740Z,99281.69
2022-12-05T02:41:54.319Z,99274.88
2022-12-05T02:44:47.560Z,99279.13
2022-12-05T02:47:41.898Z,99274.94
2022-12-05T02:50:36.541Z,99279.22
2022-12-05T02:53:25.479Z,99282.56
2022-12-05T02:56:13.500Z,99282.56
2022-12-05T02:59:01.855Z,99290.28
2022-12-05T03:01:49.899Z,99285.19
2022-12-05T03:04:38.951Z,99289.44
2022-12-05T03:07:28.497Z,99294.53
2022-12-05T03:10:19.201Z,99302.16
2022-12-05T03:13:12.789Z,99310.63
2022-12-05T03:16:03.907Z,99307.22
2022-12-05T03:18:55.407Z,99308.06
2022-12-05T03:21:52.983Z,99305.53
2022-12-05T03:24:42.195Z,99310.63
2022-12-05T03:27:35.227Z,99305.53
2022-12-05T03:30:24.343Z,99306.34
2022-12-05T03:33:14.963Z,99305.44
2022-12-05T03:36:09.171Z,99302.91
2022-12-05T03:39:04.890Z,99312.97
2022-12-05T03:41:59.956Z,99320.59
2022-12-05T03:44:53.768Z,99325.69
2022-12-05T03:47:49.183Z,99334.13
2022-12-05T03:50:40.012Z,99337.50
2022-12-05T03:53:34.175Z,99339.16
2022-12-05T03:56:26.543Z,99337.50
2022-12-05T03:59:20.156Z,99339.16
2022-12-05T04:02:14.876Z,99341.75
2022-12-05T04:05:07.782Z,99342.59
2022-12-05T04:08:01.440Z,99349.31
2022-12-05T04:10:51.008Z,99344.22
2022-12-05T04:13:43.208Z,99350.13
2022-12-05T04:16:53.824Z,99346.69
2022-12-05T04:20:03.053Z,99345.84
2022-12-05T04:22:50.823Z,99349.31
2022-12-05T04:25:48.064Z,99357.66
2022-12-05T04:28:44.418Z,99347.50
2022-12-05T04:31:38.524Z,99348.31
2022-12-05T04:34:28.548Z,99351.69
2022-12-05T04:37:20.824Z,99361.84
2022-12-05T04:40:15.716Z,99360.97
2022-12-05T04:43:05.149Z,99359.31
2022-12-05T04:45:56.094Z,99351.69
2022-12-05T04:48:45.936Z,99346.53
2022-12-05T04:51:36.224Z,99342.34
2022-12-05T04:54:29.516Z,99332.06
2022-12-05T04:57:21.055Z,99333.91
2022-12-05T05:00:10.230Z,99340.69
2022-12-05T05:03:06.938Z,99348.25
2022-12-05T05:05:57.663Z,99342.25
2022-12-05T05:08:50.645Z,99346.53
2022-12-05T05:11:38.887Z,99346.53
2022-12-05T05:14:26.011Z,99347.34
2022-12-05T05:17:12.962Z,99343.19
2022-12-05T05:20:23.729Z,99352.41
2022-12-05T05:23:10.947Z,99354.97
2022-12-05T05:25:58.306Z,99343.91
2022-12-05T05:28:45.959Z,99357.50
2022-12-05T05:31:33.871Z,99360.03
2022-12-05T05:34:21.054Z,99360.03
2022-12-05T05:37:09.495Z,99357.50
2022-12-05T05:39:57.217Z,99365.97
2022-12-05T05:42:45.977Z,99360.97
2022-12-05T05:45:32.863Z,99366.03
2022-12-05T05:48:19.941Z,99366.84
2022-12-05T05:51:10.727Z,99359.22
2022-12-05T05:54:00.698Z,99355.88
2022-12-05T05:56:48.004Z,99371.94
2022-12-05T05:59:35.178Z,99376.22
2022-12-05T06:02:22.299Z,99372.75
2022-12-05T06:05:10.238Z,99382.09
2022-12-05T06:07:57.519Z,99381.28
2022-12-05T06:10:45.823Z,99378.75
2022-12-05T06:13:33.231Z,99388.91
2022-12-05T06:16:21.113Z,99395.72
2022-12-05T06:19:08.550Z,99399.91
2022-12-05T06:21:55.588Z,99414.34
2022-12-05T06:24:42.692Z,99411.81
2022-12-05T06:27:32.630Z,99411.81
2022-12-05T06:30:20.251Z,99411.81
2022-12-05T06:33:07.719Z,99409.97
2022-12-05T06:36:05.534Z,99414.25
2022-12-05T06:38:52.721Z,99406.63
2022-12-05T06:41:39.903Z,99413.38
2022-12-05T06:44:29.176Z,99406.53
2022-12-05T06:47:16.305Z,99413.28
2022-12-05T06:50:03.464Z,99413.28
2022-12-05T06:52:51.977Z,99424.25
2022-12-05T06:55:39.301Z,99424.25
2022-12-05T06:58:26.634Z,99422.53
2022-12-05T07:01:34.417Z,99429.34
2022-12-05T07:04:03.488Z,99423.44
2022-12-05T07:06:32.428Z,99431.06
2022-12-05T07:09:01.457Z,99440.31
2022-12-05T07:11:30.411Z,99442.88
2022-12-05T07:13:59.165Z,99441.97
2022-12-05T07:16:29.409Z,99440.25
2022-12-05T07:18:58.503Z,99444.44
2022-12-05T07:21:27.128Z,99455.44
2022-12-05T07:23:56.335Z,99453.63
2022-12-05T07:26:26.144Z,99453.63
2022-12-05T07:28:57.971Z,99451.06
2022-12-05T07:31:29.937Z,99450.19
2022-12-05T07:33:58.851Z,99450.19
2022-12-05T07:36:27.551Z,99456.91
2022-12-05T07:38:59.416Z,99456.91
2022-12-05T07:41:31.428Z,99462.81
2022-12-05T07:44:01.824Z,99467.09
2022-12-05T07:46:31.913Z,99466.16
2022-12-05T07:49:00.478Z,99463.63
2022-12-05T07:51:29.334Z,99464.47
2022-12-05T07:54:00.045Z,99473.75
2022-12-05T07:56:29.058Z,99470.28
2022-12-05T07:58:57.742Z,99482.09
2022-12-05T08:01:29.131Z,99471.13
2022-12-05T08:04:00.759Z,99482.91
2022-12-05T08:06:31.255Z,99489.63
2022-12-05T08:08:59.927Z,99497.19
2022-12-05T08:11:31.946Z,99493.03
2022-12-05T08:14:00.674Z,99503.13
2022-12-05T08:16:32.253Z,99498.91
2022-12-05T08:19:04.188Z,99504.81
2022-12-05T08:21:33.600Z,99508.19
2022-12-05T08:24:05.087Z,99504.75
2022-12-05T08:26:35.979Z,99508.13
2022-12-05T08:29:08.152Z,99508.13
2022-12-05T08:31:41.612Z,99502.22
2022-12-05T08:34:13.618Z,99509.75
2022-12-05T08:36:42.899Z,99512.31
2022-12-05T08:39:16.073Z,99509.75
2022-12-05T08:41:45.124Z,99514.84
2022-12-05T08:44:16.503Z,99513.19
2022-12-05T08:46:47.480Z,99525.03
2022-12-05T08:49:19.086Z,99516.56
2022-12-05T08:51:47.840Z,99525.03
2022-12-05T08:54:18.390Z,99528.28
2022-12-05T08:56:47.355Z,99540.19
2022-12-05T08:59:16.012Z,99539.31
2022-12-05T09:01:44.700Z,99531.69
2022-12-05T09:04:13.564Z,99539.31
2022-12-05T09:06:43.973Z,99542.66
2022-12-05T09:09:13.150Z,99549.47
2022-12-05T09:11:48.940Z,99551.09
2022-12-05T09:14:18.535Z,99553.72
2022-12-05T09:16:49.031Z,99548.63
2022-12-05T09:19:23.586Z,99547.81
2022-12-05T09:21:53.658Z,99563.91
2022-12-05T09:24:22.314Z,99569.81
2022-12-05T09:26:51.094Z,99568.09
2022-12-05T09:29:19.827Z,99560.47
2022-12-05T09:31:51.661Z,99563.91
2022-12-05T09:34:20.463Z,99567.19
2022-12-05T09:37:05.563Z,99573.91
2022-12-05T09:39:36.367Z,99568.81
2022-12-05T09:42:31.360Z,99568.00
2022-12-05T09:45:24.878Z,99567.19
2022-12-05T09:48:01.310Z,99563.72
2022-12-05T09:50:32.584Z,99560.31
2022-12-05T09:53:11.715Z,99561.13
2022-12-05T09:55:48.616Z,99556.88
2022-12-05T09:58:30.531Z,99571.16
2022-12-05T10:01:13.584Z,99565.22
2022-12-05T10:03:48.817Z,99564.34
2022-12-05T10:06:22.772Z,99560.91
2022-12-05T10:09:13.673Z,99561.72
2022-12-05T10:11:50.628Z,99554.91
2022-12-05T10:14:34.735Z,99548.94
2022-12-05T10:17:12.188Z,99563.28
2022-12-05T10:19:47.171Z,99548.00
2022-12-05T10:22:24.179Z,99560.66
2022-12-05T10:24:57.325Z,99559.84
2022-12-05T10:27:39.728Z,99553.78
2022-12-05T10:30:16.627Z,99554.66
2022-12-05T10:32:54.632Z,99552.03
2022-12-05T10:35:26.020Z,99556.31
2022-12-05T10:37:57.682Z,99553.78
2022-12-05T10:40:36.724Z,99551.97
2022-12-05T10:43:08.965Z,99556.25
2022-12-05T10:45:43.535Z,99560.44
2022-12-05T10:48:15.645Z,99559.53
2022-12-05T10:50:48.592Z,99562.91
2022-12-05T10:53:20.541Z,99558.63
2022-12-05T10:56:28.103Z,99564.53
2022-12-05T10:58:57.133Z,99557.81
2022-12-05T11:01:27.977Z,99562.00
2022-12-05T11:04:01.271Z,99555.09
2022-12-05T11:06:32.973Z,99547.47
2022-12-05T11:09:14.540Z,99549.94
2022-12-05T11:11:43.317Z,99551.66
2022-12-05T11:14:26.387Z,99554.13
2022-12-05T11:16:59.295Z,99548.22
2022-12-05T11:19:30.743Z,99552.44
2022-12-05T11:22:00.191Z,99556.59
2022-12-05T11:24:31.526Z,99554.97
2022-12-05T11:27:02.492Z,99554.81
2022-12-05T11:29:36.500Z,99550.59
2022-12-05T11:32:09.996Z,99553.16
2022-12-05T11:34:46.323Z,99546.34
2022-12-05T11:37:21.946Z,99544.63
2022-12-05T11:39:50.563Z,99540.44
2022-12-05T11:42:32.148Z,99547.25
2022-12-05T11:45:21.848Z,99548.88
2022-12-05T11:48:08.042Z,99553.16
2022-12-05T11:50:47.776Z,99544.72
2022-12-05T11:53:52.011Z,99541.31
2022-12-05T11:56:38.395Z,99546.41
2022-12-05T12:00:16.371Z,99547.34
2022-12-05T12:03:13.466Z,99540.59
2022-12-05T12:06:09.689Z,99546.41
2022-12-05T12:08:51.887Z,99541.31
2022-12-05T12:11:29.729Z,99542.16
2022-12-05T12:14:09.456Z,99548.06
2022-12-05T12:16:51.437Z,99548.06
2022-12-05T12:19:59.899Z,99542.09
2022-12-05T12:22:55.166Z,99543.78
2022-12-05T12:25:34.317Z,99549.72
2022-12-05T12:28:25.944Z,99544.63
2022-12-05T12:31:10.760Z,99539.53
2022-12-05T12:33:48.333Z,99539.47
2022-12-05T12:36:26.274Z,99542.88
2022-12-05T12:39:23.184Z,99540.34
2022-12-05T12:42:19.804Z,99537.81
2022-12-05T12:45:23.553Z,99532.72
2022-12-05T12:48:11.167Z,99538.66
2022-12-05T12:50:45.637Z,99540.34
2022-12-05T12:54:08.469Z,99536.09
2022-12-05T12:56:54.017Z,99544.47
2022-12-05T12:59:56.946Z,99536.09
2022-12-05T13:02:35.476Z,99542.81
2022-12-05T13:05:14.397Z,99535.09
2022-12-05T13:07:49.018Z,99529.19
2022-12-05T13:10:33.044Z,99540.16
2022-12-05T13:13:02.059Z,99536.69
2022-12-05T13:15:40.980Z,99529.06
2022-12-05T13:18:18.922Z,99526.44
2022-12-05T13:20:52.224Z,99524.72
2022-12-05T13:23:25.264Z,99534.00
2022-12-05T13:25:58.135Z,99533.09
2022-12-05T13:28:33.220Z,99537.28
2022-12-05T13:31:04.975Z,99542.38
2022-12-05T13:33:37.490Z,99538.03
2022-12-05T13:36:34.143Z,99544.75
2022-12-05T13:39:24.139Z,99544.75
2022-12-05T13:42:15.904Z,99548.94
2022-12-05T13:44:48.304Z,99548.94
2022-12-05T13:47:30.615Z,99554.03
2022-12-05T13:50:08.969Z,99551.50
2022-12-05T13:52:44.650Z,99555.69
2022-12-05T13:55:35.592Z,99552.25
2022-12-05T13:58:47.128Z,99555.69
2022-12-05T14:01:55.367Z,99558.22
2022-12-05T14:04:51.013Z,99561.66
2022-12-05T14:07:42.154Z,99559.03
2022-12-05T14:10:14.124Z,99555.69
2022-12-05T14:12:56.469Z,99551.41
2022-12-05T14:15:34.135Z,99553.06
2022-12-05T14:18:17.460Z,99556.41
2022-12-05T14:21:05.719Z,99551.31
2022-12-05T14:23:55.107Z,99556.41
2022-12-05T14:27:00.175Z,99555.59
2022-12-05T14:29:40.585Z,99558.97
2022-12-05T14:32:23.024Z,99564.03
2022-12-05T14:34:59.139Z,99561.50
2022-12-05T14:37:33.511Z,99563.16
2022-12-05T14:40:05.158Z,99566.53
2022-12-05T14:42:40.271Z,99563.06
2022-12-05T14:45:33.275Z,99565.69
2022-12-05T14:48:06.744Z,99565.69
2022-12-05T14:50:43.018Z,99573.25
2022-12-05T14:53:31.642Z,99569.91
2022-12-05T14:56:16.293Z,99577.53
2022-12-05T14:58:51.483Z,99571.63
2022-12-05T15:01:24.927Z,99574.97
2022-12-05T15:04:11.646Z,99577.53
2022-12-05T15:06:50.106Z,99581.81
2022-12-05T15:09:48.933Z,99586.06
2022-12-05T15:12:22.037Z,99586.91
2022-12-05T15:15:01.367Z,99589.34
2022-12-05T15:17:40.508Z,99586.91
2022-12-05T15:20:21.020Z,99591.97
2022-12-05T15:22:49.661Z,99593.59
2022-12-05T15:25:31.446Z,99591.06
2022-12-05T15:28:04.687Z,99596.22
2022-12-05T15:30:37.616Z,99598.78
2022-12-05T15:33:06.823Z,99591.16
2022-12-05T15:35:36.875Z,99586.06
2022-12-05T15:38:15.151Z,99585.16
2022-12-05T15:40:47.863Z,99585.88
2022-12-05T15:43:32.026Z,99591.06
2022-12-05T15:46:25.048Z,99589.44
2022-12-05T15:48:54.838Z,99591.97
2022-12-05T15:51:32.197Z,99591.97
2022-12-05T15:54:08.970Z,99592.78
2022-12-05T15:56:42.116Z,99596.22
2022-12-05T15:59:18.570Z,99596.22
2022-12-05T16:01:52.793Z,99592.88
2022-12-05T16:04:29.755Z,99601.31
2022-12-05T16:07:05.309Z,99597.13
2022-12-05T16:09:38.891Z,99591.22
2022-12-05T16:12:19.871Z,99590.34
2022-12-05T16:15:01.358Z,99595.44
2022-12-05T16:17:40.442Z,99592.03
2022-12-05T16:20:23.319Z,99592.03
2022-12-05T16:22:56.032Z,99594.59
2022-12-05T16:25:27.536Z,99604.75
2022-12-05T16:28:02.915Z,99605.59
2022-12-05T16:30:32.667Z,99597.13
2022-12-05T16:33:06.044Z,99597.97
2022-12-05T16:35:40.949Z,99603.94
2022-12-05T16:38:20.371Z,99601.50
2022-12-05T16:40:58.887Z,99609.13
2022-12-05T16:43:42.878Z,99604.03
2022-12-05T16:46:47.706Z,99601.50
2022-12-05T16:49:22.559Z,99609.13
2022-12-05T16:52:02.591Z,99621.03
2022-12-05T16:54:32.638Z,99617.66
2022-12-05T16:57:02.990Z,99615.09
2022-12-05T16:59:35.409Z,99619.38
2022-12-05T17:02:07.271Z,99621.84
2022-12-05T17:04:36.014Z,99621.03
2022-12-05T17:07:04.614Z,99626.94
2022-12-05T17:09:34.697Z,99626.13
2022-12-05T17:12:07.074Z,99626.94
2022-12-05T17:14:35.827Z,99632.03
2022-12-05T17:17:06.016Z,99629.47
2022-12-05T17:19:34.624Z,99637.91
2022-12-05T17:22:03.479Z,99640.47
2022-12-05T17:24:32.025Z,99637.13
2022-12-05T17:27:02.073Z,99637.91
2022-12-05T17:29:35.474Z,99639.66
2022-12-05T17:32:04.640Z,99640.56
2022-12-05T17:34:33.807Z,99642.19
2022-12-05T17:37:02.654Z,99639.66
2022-12-05T17:39:31.323Z,99652.38
2022-12-05T17:42:01.292Z,99653.28
2022-12-05T17:44:30.203Z,99647.38
2022-12-05T17:47:03.028Z,99649.06
2022-12-05T17:49:34.786Z,99645.72
2022-12-05T17:54:52.626Z,99641.69
2022-12-05T17:57:22.645Z,99640.88
2022-12-05T17:59:51.267Z,99653.59
2022-12-05T18:02:20.181Z,99645.97
2022-12-05T18:04:48.950Z,99640.03
2022-12-05T18:07:19.762Z,99645.13
2022-12-05T18:09:48.380Z,99646.84
2022-12-05T18:12:16.975Z,99646.84
2022-12-05T18:14:47.177Z,99649.41
2022-12-05T18:17:16.539Z,99651.94
2022-12-05T18:19:45.343Z,99646.84
2022-12-05T18:22:15.936Z,99646.78
2022-12-05T18:24:47.211Z,99647.66
2022-12-05T18:27:16.135Z,99646.78
2022-12-05T18:29:48.569Z,99647.59
2022-12-05T18:32:17.548Z,99654.31
2022-12-05T18:34:46.647Z,99650.13
2022-12-05T18:37:16.555Z,99654.31
2022-12-05T18:39:45.459Z,99649.25
2022-12-05T18:42:15.429Z,99644.97
2022-12-05T18:44:44.322Z,99650.88
2022-12-05T18:47:14.354Z,99648.44
2022-12-05T18:49:43.111Z,99650.88
2022-12-05T18:52:11.696Z,99647.50
2022-12-05T18:54:40.339Z,99640.72
2022-12-05T18:57:09.295Z,99644.22
2022-12-05T18:59:38.400Z,99646.78
2022-12-05T19:02:07.097Z,99645.97
2022-12-05T19:04:37.451Z,99650.97
2022-12-05T19:07:06.077Z,99649.25
2022-12-05T19:09:35.956Z,99650.97
2022-12-05T19:12:05.159Z,99640.78
2022-12-05T19:14:35.271Z,99639.06
2022-12-05T19:17:03.946Z,99644.06
2022-12-05T19:19:32.695Z,99647.50
2022-12-05T19:22:02.726Z,99648.34
2022-12-05T19:24:31.355Z,99650.88
2022-12-05T19:27:00.269Z,99641.59
2022-12-05T19:29:28.940Z,99649.16
2022-12-05T19:31:57.669Z,99652.53
2022-12-05T19:34:26.527Z,99656.78
2022-12-05T19:36:55.136Z,99653.44
2022-12-05T19:39:27.204Z,99655.13
2022-12-05T19:41:57.662Z,99656.88
2022-12-05T19:44:26.455Z,99659.41
2022-12-05T19:46:55.221Z,99661.97
2022-12-05T19:49:25.061Z,99656.16
2022-12-05T19:51:53.714Z,99646.84
2022-12-05T19:54:24.183Z,99652.75
2022-12-05T19:56:58.264Z,99653.66
2022-12-05T19:59:26.988Z,99642.66
2022-12-05T20:01:55.702Z,99646.94
2022-12-05T20:04:24.409Z,99641.84
2022-12-05T20:06:53.075Z,99647.75
2022-12-05T20:09:23.447Z,99651.94
2022-12-05T20:11:56.003Z,99646.94
2022-12-05T20:14:26.532Z,99651.09
2022-12-05T20:16:55.716Z,99651.94
2022-12-05T20:19:24.665Z,99643.47
2022-12-05T20:21:55.353Z,99651.94
2022-12-05T20:24:24.047Z,99651.94
2022-12-05T20:26:54.003Z,99645.97
2022-12-05T20:29:22.635Z,99651.06
2022-12-05T20:31:56.628Z,99643.41
2022-12-05T20:34:25.475Z,99641.69
2022-12-05T20:36:54.200Z,99644.31
2022-12-05T20:39:24.763Z,99653.66
2022-12-05T20:41:54.837Z,99653.66
2022-12-05T20:44:23.793Z,99652.75
2022-12-05T20:46:53.129Z,99648.50
2022-12-05T20:49:21.726Z,99649.31
2022-12-05T20:51:50.390Z,99656.97
2022-12-05T20:54:19.088Z,99651.06
2022-12-05T20:56:49.182Z,99658.69
2022-12-05T20:59:19.181Z,99656.97
2022-12-05T21:01:47.944Z,99651.06
2022-12-05T21:04:39.043Z,99660.38
2022-12-05T21:07:26.103Z,99657.94
2022-12-05T21:10:13.324Z,99655.38
2022-12-05T21:13:00.786Z,99657.13
2022-12-05T21:15:49.686Z,99663.00
2022-12-05T21:18:36.848Z,99651.19
2022-12-05T21:21:26.791Z,99647.03
2022-12-05T21:24:14.819Z,99652.09
2022-12-05T21:27:03.237Z,99646.09
2022-12-05T21:29:50.320Z,99651.19
2022-12-05T21:32:38.841Z,99651.19
2022-12-05T21:35:26.560Z,99649.56
2022-12-05T21:38:13.793Z,99646.94
2022-12-05T21:41:01.266Z,99646.94
2022-12-05T21:43:54.036Z,99650.38
2022-12-05T21:46:41.496Z,99650.28
2022-12-05T21:49:30.535Z,99650.28
2022-12-05T21:52:18.231Z,99640.94
2022-12-05T21:55:05.747Z,99642.66
2022-12-05T21:57:53.091Z,99644.31
2022-12-05T22:00:40.967Z,99639.22
2022-12-05T22:03:28.562Z,99648.56
2022-12-05T22:06:17.240Z,99648.56
2022-12-05T22:09:05.102Z,99656.16
2022-12-05T22:11:52.609Z,99647.66
2022-12-05T22:14:39.775Z,99642.50
2022-12-05T22:17:29.472Z,99641.78
2022-12-05T22:20:16.979Z,99648.50
2022-12-05T22:23:05.798Z,99647.66
2022-12-05T22:26:05.254Z,99653.59
2022-12-05T22:28:53.359Z,99645.97
2022-12-05T22:31:40.857Z,99650.22
2022-12-05T22:34:28.308Z,99650.22
2022-12-05T22:37:15.442Z,99655.31
2022-12-05T22:40:04.188Z,99647.75
2022-12-05T22:42:51.636Z,99652.84
2022-12-05T22:45:39.026Z,99646.94
2022-12-05T22:48:27.818Z,99646.94
2022-12-05T22:51:15.658Z,99641.84
2022-12-05T22:54:03.101Z,99647.75
2022-12-05T22:56:51.984Z,99644.41
2022-12-05T22:59:39.086Z,99637.56
2022-12-05T23:02:26.595Z,99631.69
2022-12-05T23:05:14.126Z,99634.94
2022-12-05T23:08:01.643Z,99638.38
2022-12-05T23:10:48.865Z,99634.13
2022-12-05T23:13:39.432Z,99634.13
2022-12-05T23:16:29.470Z,99624.78
2022-12-05T23:19:16.835Z,99625.66
2022-12-05T23:22:04.014Z,99623.97
2022-12-05T23:24:51.130Z,99623.97
2022-12-05T23:27:38.135Z,99620.53
2022-12-05T23:30:26.697Z,99613.78
2022-12-05T23:33:14.062Z,99616.31
2022-12-05T23:36:01.231Z,99616.31
2022-12-05T23:38:49.022Z,99613.78
2022-12-05T23:41:36.384Z,99606.16
2022-12-05T23:44:24.228Z,99608.69
2022-12-05T23:47:12.839Z,99595.13
2022-12-05T23:50:00.448Z,99604.50
2022-12-05T23:52:47.932Z,99606.31
2022-12-05T23:55:35.711Z,99603.78
2022-12-05T23:58:23.087Z,99613.94
